OCN4ES LGIR-EDDF
Flight info
| Callsign | OCN4ES |
|---|---|
| Flight time | 2h 54m |
| Altitude | 36000 |
| Route | EPALO UM749 ATV DCT TALAS DCT LONTA UL608 DOLEV DCT RADLY DCT SIMBA DCT AKINI T161 DEBHI DEBHI1B |
| Aircraft | A320/M-SDE3FGHIRWY/LB1 |
Departure
| Time | 2026-04-16 06:39 |
|---|---|
| Airport | Heraklion International Nikos Kazantzakis Airport (LGIR) |
Arrival
| Time | 2026-04-16 09:33 |
|---|---|
| Airport | Frankfurt Main Airport (EDDF) |
| Time | Latitude | Longitude | Altitude | Speed | Heading |
|---|---|---|---|---|---|
| 2026-04-16 06:06 | 35.33869 | 25.17302 | 82 ft | 0 kts | 120° |
| 2026-04-16 06:29 | 35.33867 | 25.17300 | 86 ft | 2 kts | 102° |
| 2026-04-16 06:29 | 35.33868 | 25.17301 | 86 ft | 2 kts | 69° |
| 2026-04-16 06:29 | 35.33862 | 25.17282 | 87 ft | 4 kts | 20° |
| 2026-04-16 06:29 | 35.33853 | 25.17286 | 84 ft | 4 kts | 308° |
| 2026-04-16 06:30 | 35.33846 | 25.17310 | 86 ft | 4 kts | 270° |
| 2026-04-16 06:30 | 35.33853 | 25.17339 | 86 ft | 4 kts | 234° |
| 2026-04-16 06:30 | 35.33860 | 25.17351 | 87 ft | 0 kts | 237° |
| 2026-04-16 06:33 | 35.33855 | 25.17325 | 83 ft | 9 kts | 264° |
| 2026-04-16 06:33 | 35.33904 | 25.17276 | 85 ft | 10 kts | 19° |
| 2026-04-16 06:34 | 35.33923 | 25.17347 | 84 ft | 11 kts | 89° |
| 2026-04-16 06:34 | 35.33917 | 25.17448 | 86 ft | 11 kts | 96° |
| 2026-04-16 06:34 | 35.33911 | 25.17536 | 92 ft | 14 kts | 95° |
| 2026-04-16 06:34 | 35.33901 | 25.17668 | 94 ft | 14 kts | 95° |
| 2026-04-16 06:35 | 35.33893 | 25.17787 | 95 ft | 17 kts | 95° |
| 2026-04-16 06:35 | 35.33884 | 25.17917 | 99 ft | 13 kts | 95° |
| 2026-04-16 06:35 | 35.33874 | 25.18049 | 100 ft | 20 kts | 96° |
| 2026-04-16 06:35 | 35.33865 | 25.18203 | 104 ft | 16 kts | 94° |
| 2026-04-16 06:36 | 35.33857 | 25.18338 | 106 ft | 18 kts | 94° |
| 2026-04-16 06:36 | 35.33845 | 25.18497 | 108 ft | 18 kts | 95° |
| 2026-04-16 06:36 | 35.33835 | 25.18636 | 111 ft | 16 kts | 95° |
| 2026-04-16 06:36 | 35.33824 | 25.18780 | 113 ft | 16 kts | 95° |
| 2026-04-16 06:37 | 35.33818 | 25.18899 | 117 ft | 12 kts | 85° |
| 2026-04-16 06:37 | 35.33849 | 25.18980 | 116 ft | 10 kts | 32° |
| 2026-04-16 06:37 | 35.33912 | 25.18938 | 112 ft | 13 kts | 281° |
| 2026-04-16 06:37 | 35.33913 | 25.18921 | 113 ft | 0 kts | 275° |
| 2026-04-16 06:38 | 35.33915 | 25.18899 | 113 ft | 12 kts | 275° |
| 2026-04-16 06:38 | 35.33943 | 25.18481 | 105 ft | 86 kts | 275° |
| 2026-04-16 06:38 | 35.34010 | 25.17504 | 90 ft | 142 kts | 275° |
| 2026-04-16 06:38 | 35.34105 | 25.16176 | 455 ft | 159 kts | 275° |
| 2026-04-16 06:39 | 35.34293 | 25.14843 | 1149 ft | 161 kts | 300° |
| 2026-04-16 06:39 | 35.35154 | 25.14003 | 1613 ft | 169 kts | 346° |
| 2026-04-16 06:39 | 35.36367 | 25.13645 | 1897 ft | 190 kts | 347° |
| 2026-04-16 06:39 | 35.37725 | 25.13204 | 2177 ft | 214 kts | 346° |
| 2026-04-16 06:40 | 35.39243 | 25.12690 | 2561 ft | 238 kts | 346° |
| 2026-04-16 06:40 | 35.40893 | 25.12117 | 3154 ft | 252 kts | 346° |
| 2026-04-16 06:40 | 35.42603 | 25.11511 | 3910 ft | 259 kts | 346° |
| 2026-04-16 06:40 | 35.44336 | 25.10890 | 4651 ft | 267 kts | 346° |
| 2026-04-16 06:41 | 35.46147 | 25.10236 | 5359 ft | 275 kts | 346° |
| 2026-04-16 06:41 | 35.48004 | 25.09563 | 6109 ft | 282 kts | 345° |
| 2026-04-16 06:41 | 35.49901 | 25.08875 | 6877 ft | 287 kts | 344° |
| 2026-04-16 06:41 | 35.51835 | 25.08176 | 7583 ft | 293 kts | 344° |
| 2026-04-16 06:42 | 35.53811 | 25.07462 | 8293 ft | 299 kts | 344° |
| 2026-04-16 06:42 | 35.55832 | 25.06729 | 8995 ft | 306 kts | 344° |
| 2026-04-16 06:42 | 35.57891 | 25.05982 | 9690 ft | 312 kts | 344° |
| 2026-04-16 06:42 | 35.59992 | 25.05221 | 10344 ft | 318 kts | 344° |
| 2026-04-16 06:43 | 35.62126 | 25.04448 | 11035 ft | 321 kts | 344° |
| 2026-04-16 06:43 | 35.64278 | 25.03669 | 11742 ft | 324 kts | 345° |
| 2026-04-16 06:43 | 35.66452 | 25.02882 | 12453 ft | 327 kts | 345° |
| 2026-04-16 06:43 | 35.68649 | 25.02087 | 13153 ft | 331 kts | 345° |
| 2026-04-16 06:44 | 35.70864 | 25.01287 | 13849 ft | 334 kts | 345° |
| 2026-04-16 06:44 | 35.73088 | 25.00416 | 14462 ft | 337 kts | 342° |
| 2026-04-16 06:44 | 35.75299 | 24.99422 | 15065 ft | 340 kts | 340° |
| 2026-04-16 06:44 | 35.77514 | 24.98359 | 15678 ft | 343 kts | 339° |
| 2026-04-16 06:45 | 35.79743 | 24.97264 | 16282 ft | 347 kts | 338° |
| 2026-04-16 06:45 | 35.81996 | 24.96162 | 16857 ft | 350 kts | 338° |
| 2026-04-16 06:45 | 35.84272 | 24.95065 | 17455 ft | 354 kts | 338° |
| 2026-04-16 06:45 | 35.86580 | 24.93965 | 18043 ft | 357 kts | 338° |
| 2026-04-16 06:46 | 35.88912 | 24.92863 | 18567 ft | 360 kts | 338° |
| 2026-04-16 06:46 | 35.91258 | 24.91758 | 19086 ft | 362 kts | 338° |
| 2026-04-16 06:46 | 35.93623 | 24.90648 | 19614 ft | 364 kts | 338° |
| 2026-04-16 06:46 | 35.95998 | 24.89530 | 20146 ft | 366 kts | 338° |
| 2026-04-16 06:47 | 35.98416 | 24.88388 | 20367 ft | 379 kts | 339° |
| 2026-04-16 06:47 | 36.00926 | 24.87200 | 20496 ft | 394 kts | 339° |
| 2026-04-16 06:47 | 36.03530 | 24.85968 | 20627 ft | 408 kts | 339° |
| 2026-04-16 06:47 | 36.06222 | 24.84696 | 20755 ft | 421 kts | 339° |
| 2026-04-16 06:48 | 36.08998 | 24.83385 | 20885 ft | 433 kts | 339° |
| 2026-04-16 06:48 | 36.11849 | 24.82038 | 21011 ft | 444 kts | 339° |
| 2026-04-16 06:48 | 36.14763 | 24.80654 | 21139 ft | 454 kts | 338° |
| 2026-04-16 06:48 | 36.17706 | 24.79250 | 21270 ft | 464 kts | 338° |
| 2026-04-16 06:49 | 36.20745 | 24.77794 | 21400 ft | 472 kts | 338° |
| 2026-04-16 06:49 | 36.23826 | 24.76320 | 21620 ft | 477 kts | 338° |
| 2026-04-16 06:49 | 36.26938 | 24.74834 | 21907 ft | 481 kts | 338° |
| 2026-04-16 06:49 | 36.30066 | 24.73342 | 22258 ft | 483 kts | 338° |
| 2026-04-16 06:50 | 36.33204 | 24.71850 | 22614 ft | 485 kts | 338° |
| 2026-04-16 06:50 | 36.36361 | 24.70352 | 22949 ft | 486 kts | 338° |
| 2026-04-16 06:50 | 36.39524 | 24.68845 | 23284 ft | 488 kts | 338° |
| 2026-04-16 06:50 | 36.42699 | 24.67332 | 23603 ft | 489 kts | 338° |
| 2026-04-16 06:51 | 36.45884 | 24.65813 | 23872 ft | 491 kts | 338° |
| 2026-04-16 06:51 | 36.49076 | 24.64290 | 24106 ft | 493 kts | 338° |
| 2026-04-16 06:51 | 36.52289 | 24.62758 | 24301 ft | 496 kts | 338° |
| 2026-04-16 06:51 | 36.55521 | 24.61214 | 24535 ft | 498 kts | 338° |
| 2026-04-16 06:52 | 36.58763 | 24.59657 | 24789 ft | 500 kts | 338° |
| 2026-04-16 06:52 | 36.62014 | 24.58091 | 25037 ft | 501 kts | 338° |
| 2026-04-16 06:52 | 36.65265 | 24.56520 | 25326 ft | 502 kts | 338° |
| 2026-04-16 06:52 | 36.68513 | 24.54951 | 25698 ft | 500 kts | 338° |
| 2026-04-16 06:53 | 36.71755 | 24.53388 | 26072 ft | 499 kts | 338° |
| 2026-04-16 06:53 | 36.74975 | 24.51789 | 26462 ft | 497 kts | 335° |
| 2026-04-16 06:53 | 36.78075 | 24.49909 | 26878 ft | 495 kts | 333° |
| 2026-04-16 06:53 | 36.81155 | 24.48011 | 27270 ft | 493 kts | 333° |
| 2026-04-16 06:54 | 36.84226 | 24.46113 | 27650 ft | 492 kts | 333° |
| 2026-04-16 06:54 | 36.87291 | 24.44215 | 28022 ft | 491 kts | 333° |
| 2026-04-16 06:54 | 36.90346 | 24.42325 | 28394 ft | 490 kts | 333° |
| 2026-04-16 06:54 | 36.93358 | 24.40461 | 28751 ft | 489 kts | 333° |
| 2026-04-16 06:55 | 36.96441 | 24.38547 | 29163 ft | 488 kts | 333° |
| 2026-04-16 06:55 | 36.99441 | 24.36684 | 29486 ft | 488 kts | 333° |
| 2026-04-16 06:55 | 37.02472 | 24.34799 | 29882 ft | 486 kts | 333° |
| 2026-04-16 06:55 | 37.05494 | 24.32918 | 30243 ft | 484 kts | 333° |
| 2026-04-16 06:56 | 37.08550 | 24.31018 | 30556 ft | 484 kts | 333° |
| 2026-04-16 06:56 | 37.11562 | 24.29150 | 30858 ft | 483 kts | 333° |
| 2026-04-16 06:56 | 37.14569 | 24.27281 | 31159 ft | 482 kts | 333° |
| 2026-04-16 06:56 | 37.17535 | 24.25433 | 31448 ft | 482 kts | 333° |
| 2026-04-16 06:57 | 37.20533 | 24.23563 | 31737 ft | 481 kts | 333° |
| 2026-04-16 06:57 | 37.23531 | 24.21690 | 32028 ft | 481 kts | 333° |
| 2026-04-16 06:57 | 37.26522 | 24.19820 | 32383 ft | 479 kts | 333° |
| 2026-04-16 06:57 | 37.29494 | 24.17962 | 32735 ft | 477 kts | 333° |
| 2026-04-16 06:58 | 37.32463 | 24.16106 | 33069 ft | 475 kts | 333° |
| 2026-04-16 06:58 | 37.35418 | 24.14256 | 33380 ft | 474 kts | 333° |
| 2026-04-16 06:58 | 37.38370 | 24.12403 | 33688 ft | 474 kts | 333° |
| 2026-04-16 06:58 | 37.41314 | 24.10555 | 33979 ft | 473 kts | 333° |
| 2026-04-16 06:59 | 37.44259 | 24.08706 | 34249 ft | 472 kts | 332° |
| 2026-04-16 06:59 | 37.47190 | 24.06866 | 34529 ft | 471 kts | 332° |
| 2026-04-16 06:59 | 37.50122 | 24.05020 | 34746 ft | 471 kts | 332° |
| 2026-04-16 06:59 | 37.53056 | 24.03170 | 34922 ft | 472 kts | 332° |
| 2026-04-16 07:00 | 37.55889 | 24.01378 | 35132 ft | 472 kts | 332° |
| 2026-04-16 07:00 | 37.58824 | 23.99519 | 35367 ft | 472 kts | 332° |
| 2026-04-16 07:00 | 37.61753 | 23.97664 | 35604 ft | 471 kts | 332° |
| 2026-04-16 07:01 | 37.67601 | 23.93964 | 35973 ft | 471 kts | 332° |
| 2026-04-16 07:01 | 37.73485 | 23.90237 | 36004 ft | 474 kts | 332° |
| 2026-04-16 07:02 | 37.79385 | 23.86491 | 35991 ft | 474 kts | 332° |
| 2026-04-16 07:02 | 37.85279 | 23.82743 | 36004 ft | 474 kts | 332° |
| 2026-04-16 07:03 | 37.91187 | 23.79020 | 36005 ft | 474 kts | 333° |
| 2026-04-16 07:03 | 37.97210 | 23.75592 | 36001 ft | 475 kts | 335° |
| 2026-04-16 07:04 | 38.03286 | 23.72294 | 36018 ft | 475 kts | 336° |
| 2026-04-16 07:04 | 38.09340 | 23.68930 | 36017 ft | 475 kts | 335° |
| 2026-04-16 07:05 | 38.15361 | 23.65497 | 36020 ft | 474 kts | 335° |
| 2026-04-16 07:05 | 38.21379 | 23.62050 | 36026 ft | 474 kts | 335° |
| 2026-04-16 07:06 | 38.27398 | 23.58614 | 36035 ft | 474 kts | 335° |
| 2026-04-16 07:06 | 38.33421 | 23.55190 | 36044 ft | 474 kts | 335° |
| 2026-04-16 07:07 | 38.39402 | 23.51781 | 36047 ft | 474 kts | 335° |
| 2026-04-16 07:07 | 38.45421 | 23.48338 | 36064 ft | 474 kts | 335° |
| 2026-04-16 07:08 | 38.51433 | 23.44890 | 36067 ft | 473 kts | 335° |
| 2026-04-16 07:08 | 38.57432 | 23.41435 | 36070 ft | 473 kts | 335° |
| 2026-04-16 07:09 | 38.63430 | 23.37977 | 36081 ft | 473 kts | 335° |
| 2026-04-16 07:09 | 38.69428 | 23.34519 | 36074 ft | 473 kts | 335° |
| 2026-04-16 07:10 | 38.75421 | 23.31054 | 36081 ft | 473 kts | 334° |
| 2026-04-16 07:10 | 38.81412 | 23.27589 | 36093 ft | 472 kts | 334° |
| 2026-04-16 07:11 | 38.87396 | 23.24123 | 36088 ft | 472 kts | 334° |
| 2026-04-16 07:11 | 38.93375 | 23.20650 | 36099 ft | 471 kts | 334° |
| 2026-04-16 07:12 | 38.99347 | 23.17175 | 36103 ft | 471 kts | 334° |
| 2026-04-16 07:12 | 39.05320 | 23.13693 | 36109 ft | 471 kts | 334° |
| 2026-04-16 07:13 | 39.10280 | 23.10798 | 36113 ft | 471 kts | 334° |
| 2026-04-16 07:13 | 39.16240 | 23.07308 | 36122 ft | 470 kts | 334° |
| 2026-04-16 07:14 | 39.22199 | 23.03813 | 36123 ft | 470 kts | 334° |
| 2026-04-16 07:14 | 39.28156 | 23.00312 | 36130 ft | 471 kts | 334° |
| 2026-04-16 07:15 | 39.34108 | 22.96813 | 36129 ft | 469 kts | 334° |
| 2026-04-16 07:15 | 39.40036 | 22.93320 | 36117 ft | 468 kts | 334° |
| 2026-04-16 07:16 | 39.45965 | 22.89820 | 36106 ft | 468 kts | 334° |
| 2026-04-16 07:16 | 39.51879 | 22.86318 | 36107 ft | 467 kts | 334° |
| 2026-04-16 07:17 | 39.57793 | 22.82810 | 36109 ft | 467 kts | 334° |
| 2026-04-16 07:17 | 39.63705 | 22.79295 | 36110 ft | 468 kts | 334° |
| 2026-04-16 07:18 | 39.69625 | 22.75773 | 36115 ft | 469 kts | 334° |
| 2026-04-16 07:18 | 39.75555 | 22.72241 | 36114 ft | 469 kts | 334° |
| 2026-04-16 07:19 | 39.81489 | 22.68695 | 36114 ft | 469 kts | 334° |
| 2026-04-16 07:19 | 39.87384 | 22.65171 | 36117 ft | 470 kts | 334° |
| 2026-04-16 07:20 | 39.93324 | 22.61617 | 36110 ft | 470 kts | 334° |
| 2026-04-16 07:20 | 39.99254 | 22.58050 | 36117 ft | 469 kts | 334° |
| 2026-04-16 07:21 | 40.05181 | 22.54488 | 36123 ft | 469 kts | 334° |
| 2026-04-16 07:21 | 40.11102 | 22.50910 | 36134 ft | 469 kts | 334° |
| 2026-04-16 07:22 | 40.17020 | 22.47322 | 36116 ft | 469 kts | 334° |
| 2026-04-16 07:22 | 40.22934 | 22.43741 | 36131 ft | 468 kts | 334° |
| 2026-04-16 07:23 | 40.28848 | 22.40165 | 36126 ft | 468 kts | 334° |
| 2026-04-16 07:23 | 40.34755 | 22.36573 | 36129 ft | 468 kts | 334° |
| 2026-04-16 07:24 | 40.40655 | 22.32985 | 36129 ft | 467 kts | 334° |
| 2026-04-16 07:24 | 40.46549 | 22.29389 | 36136 ft | 467 kts | 333° |
| 2026-04-16 07:25 | 40.52433 | 22.25780 | 36127 ft | 467 kts | 333° |
| 2026-04-16 07:25 | 40.58317 | 22.22177 | 36133 ft | 467 kts | 334° |
| 2026-04-16 07:26 | 40.64201 | 22.18574 | 36127 ft | 466 kts | 333° |
| 2026-04-16 07:26 | 40.70080 | 22.14953 | 36131 ft | 466 kts | 333° |
| 2026-04-16 07:27 | 40.75953 | 22.11330 | 36135 ft | 466 kts | 333° |
| 2026-04-16 07:27 | 40.81797 | 22.07723 | 36125 ft | 467 kts | 333° |
| 2026-04-16 07:28 | 40.87693 | 22.04089 | 36127 ft | 468 kts | 333° |
| 2026-04-16 07:28 | 40.93628 | 22.00412 | 36133 ft | 468 kts | 333° |
| 2026-04-16 07:29 | 40.99514 | 21.96747 | 36141 ft | 468 kts | 333° |
| 2026-04-16 07:29 | 41.05404 | 21.93075 | 36150 ft | 467 kts | 333° |
| 2026-04-16 07:30 | 41.11439 | 21.89874 | 36146 ft | 468 kts | 339° |
| 2026-04-16 07:30 | 41.17572 | 21.86986 | 36143 ft | 467 kts | 339° |
| 2026-04-16 07:31 | 41.23658 | 21.84121 | 36147 ft | 467 kts | 338° |
| 2026-04-16 07:31 | 41.29816 | 21.81204 | 36145 ft | 467 kts | 338° |
| 2026-04-16 07:32 | 41.35894 | 21.78316 | 36159 ft | 467 kts | 338° |
| 2026-04-16 07:32 | 41.42011 | 21.75400 | 36157 ft | 467 kts | 338° |
| 2026-04-16 07:33 | 41.48125 | 21.72481 | 36153 ft | 467 kts | 338° |
| 2026-04-16 07:33 | 41.54243 | 21.69557 | 36154 ft | 467 kts | 338° |
| 2026-04-16 07:34 | 41.60354 | 21.66632 | 36165 ft | 466 kts | 338° |
| 2026-04-16 07:34 | 41.66459 | 21.63700 | 36170 ft | 466 kts | 338° |
| 2026-04-16 07:35 | 41.72563 | 21.60765 | 36169 ft | 466 kts | 338° |
| 2026-04-16 07:35 | 41.78659 | 21.57830 | 36181 ft | 465 kts | 338° |
| 2026-04-16 07:36 | 41.84741 | 21.54887 | 36176 ft | 464 kts | 338° |
| 2026-04-16 07:36 | 41.90814 | 21.51950 | 36171 ft | 463 kts | 338° |
| 2026-04-16 07:37 | 41.96872 | 21.49017 | 36174 ft | 463 kts | 338° |
| 2026-04-16 07:37 | 42.02919 | 21.46075 | 36179 ft | 462 kts | 338° |
| 2026-04-16 07:38 | 42.08957 | 21.43139 | 36174 ft | 461 kts | 338° |
| 2026-04-16 07:38 | 42.14774 | 21.39625 | 36173 ft | 457 kts | 325° |
| 2026-04-16 07:39 | 42.19519 | 21.34071 | 36169 ft | 451 kts | 308° |
| 2026-04-16 07:39 | 42.23576 | 21.27615 | 36172 ft | 451 kts | 308° |
| 2026-04-16 07:40 | 42.27643 | 21.21176 | 36166 ft | 451 kts | 308° |
| 2026-04-16 07:40 | 42.31704 | 21.14726 | 36167 ft | 451 kts | 308° |
| 2026-04-16 07:41 | 42.35731 | 21.08299 | 36175 ft | 451 kts | 308° |
| 2026-04-16 07:41 | 42.39780 | 21.01824 | 36173 ft | 451 kts | 308° |
| 2026-04-16 07:42 | 42.43826 | 20.95329 | 36171 ft | 451 kts | 308° |
| 2026-04-16 07:42 | 42.47865 | 20.88833 | 36171 ft | 451 kts | 308° |
| 2026-04-16 07:43 | 42.51902 | 20.82336 | 36171 ft | 451 kts | 308° |
| 2026-04-16 07:43 | 42.55931 | 20.75831 | 36155 ft | 451 kts | 308° |
| 2026-04-16 07:44 | 42.59958 | 20.69312 | 36144 ft | 451 kts | 308° |
| 2026-04-16 07:44 | 42.63991 | 20.62793 | 36137 ft | 451 kts | 308° |
| 2026-04-16 07:45 | 42.68020 | 20.56261 | 36137 ft | 451 kts | 308° |
| 2026-04-16 07:45 | 42.72045 | 20.49713 | 36137 ft | 451 kts | 308° |
| 2026-04-16 07:46 | 42.76065 | 20.43143 | 36138 ft | 452 kts | 308° |
| 2026-04-16 07:46 | 42.80073 | 20.36567 | 36151 ft | 451 kts | 308° |
| 2026-04-16 07:47 | 42.84214 | 20.30147 | 36155 ft | 452 kts | 316° |
| 2026-04-16 07:47 | 42.88901 | 20.24437 | 36153 ft | 452 kts | 316° |
| 2026-04-16 07:48 | 42.93582 | 20.18717 | 36148 ft | 452 kts | 316° |
| 2026-04-16 07:48 | 42.98257 | 20.12980 | 36152 ft | 452 kts | 316° |
| 2026-04-16 07:49 | 43.02934 | 20.07233 | 36147 ft | 453 kts | 317° |
| 2026-04-16 07:49 | 43.07621 | 20.01474 | 36142 ft | 453 kts | 317° |
| 2026-04-16 07:50 | 43.12309 | 19.95707 | 36142 ft | 454 kts | 317° |
| 2026-04-16 07:50 | 43.16995 | 19.89917 | 36144 ft | 454 kts | 316° |
| 2026-04-16 07:51 | 43.21643 | 19.84147 | 36148 ft | 454 kts | 316° |
| 2026-04-16 07:51 | 43.26359 | 19.78296 | 36158 ft | 454 kts | 316° |
| 2026-04-16 07:52 | 43.31039 | 19.72482 | 36156 ft | 454 kts | 317° |
| 2026-04-16 07:52 | 43.35712 | 19.66661 | 36162 ft | 454 kts | 316° |
| 2026-04-16 07:53 | 43.40382 | 19.60825 | 36162 ft | 453 kts | 316° |
| 2026-04-16 07:53 | 43.45016 | 19.55026 | 36163 ft | 453 kts | 316° |
| 2026-04-16 07:54 | 43.49675 | 19.49174 | 36165 ft | 453 kts | 317° |
| 2026-04-16 07:54 | 43.54328 | 19.43318 | 36167 ft | 453 kts | 316° |
| 2026-04-16 07:55 | 43.58974 | 19.37469 | 36173 ft | 452 kts | 316° |
| 2026-04-16 07:55 | 43.63616 | 19.31618 | 36171 ft | 452 kts | 316° |
| 2026-04-16 07:56 | 43.68247 | 19.25747 | 36166 ft | 452 kts | 316° |
| 2026-04-16 07:56 | 43.72872 | 19.19870 | 36164 ft | 452 kts | 316° |
| 2026-04-16 07:57 | 43.77502 | 19.13992 | 36181 ft | 451 kts | 316° |
| 2026-04-16 07:57 | 43.82115 | 19.08117 | 36167 ft | 450 kts | 316° |
| 2026-04-16 07:58 | 43.86720 | 19.02244 | 36174 ft | 450 kts | 317° |
| 2026-04-16 07:58 | 43.91312 | 18.96368 | 36173 ft | 449 kts | 316° |
| 2026-04-16 07:59 | 43.95901 | 18.90483 | 36165 ft | 449 kts | 317° |
| 2026-04-16 07:59 | 44.00492 | 18.84583 | 36163 ft | 450 kts | 317° |
| 2026-04-16 08:00 | 44.04303 | 18.79668 | 36162 ft | 450 kts | 318° |
| 2026-04-16 08:00 | 44.08897 | 18.73753 | 36150 ft | 451 kts | 318° |
| 2026-04-16 08:01 | 44.13498 | 18.67812 | 36149 ft | 452 kts | 318° |
| 2026-04-16 08:01 | 44.18101 | 18.61837 | 36152 ft | 453 kts | 318° |
| 2026-04-16 08:02 | 44.22703 | 18.55849 | 36156 ft | 453 kts | 318° |
| 2026-04-16 08:02 | 44.29618 | 18.46842 | 36159 ft | 454 kts | 319° |
| 2026-04-16 08:03 | 44.34237 | 18.40819 | 36168 ft | 454 kts | 319° |
| 2026-04-16 08:03 | 44.38854 | 18.34779 | 36172 ft | 455 kts | 319° |
| 2026-04-16 08:04 | 44.43467 | 18.28719 | 36174 ft | 455 kts | 319° |
| 2026-04-16 08:04 | 44.48081 | 18.22638 | 36155 ft | 456 kts | 319° |
| 2026-04-16 08:05 | 44.52703 | 18.16545 | 36153 ft | 457 kts | 319° |
| 2026-04-16 08:05 | 44.57338 | 18.10429 | 36155 ft | 458 kts | 319° |
| 2026-04-16 08:06 | 44.61946 | 18.04336 | 36159 ft | 459 kts | 319° |
| 2026-04-16 08:06 | 44.66583 | 17.98174 | 36156 ft | 459 kts | 319° |
| 2026-04-16 08:07 | 44.71223 | 17.92000 | 36167 ft | 460 kts | 319° |
| 2026-04-16 08:07 | 44.75872 | 17.85812 | 36167 ft | 460 kts | 319° |
| 2026-04-16 08:08 | 44.80512 | 17.79607 | 36179 ft | 460 kts | 319° |
| 2026-04-16 08:08 | 44.85146 | 17.73390 | 36176 ft | 460 kts | 320° |
| 2026-04-16 08:09 | 44.89775 | 17.67174 | 36191 ft | 460 kts | 320° |
| 2026-04-16 08:09 | 44.94403 | 17.60949 | 36190 ft | 459 kts | 320° |
| 2026-04-16 08:10 | 44.99021 | 17.54723 | 36194 ft | 459 kts | 320° |
| 2026-04-16 08:10 | 45.03637 | 17.48481 | 36194 ft | 459 kts | 319° |
| 2026-04-16 08:11 | 45.08240 | 17.42239 | 36195 ft | 458 kts | 319° |
| 2026-04-16 08:11 | 45.12832 | 17.36002 | 36202 ft | 457 kts | 319° |
| 2026-04-16 08:12 | 45.17412 | 17.29763 | 36193 ft | 456 kts | 319° |
| 2026-04-16 08:12 | 45.21983 | 17.23520 | 36192 ft | 456 kts | 319° |
| 2026-04-16 08:13 | 45.26552 | 17.17267 | 36195 ft | 456 kts | 319° |
| 2026-04-16 08:13 | 45.31116 | 17.11007 | 36204 ft | 456 kts | 318° |
| 2026-04-16 08:14 | 45.35638 | 17.04790 | 36203 ft | 455 kts | 318° |
| 2026-04-16 08:14 | 45.40182 | 16.98531 | 36206 ft | 454 kts | 318° |
| 2026-04-16 08:15 | 45.44719 | 16.92271 | 36202 ft | 454 kts | 318° |
| 2026-04-16 08:15 | 45.49246 | 16.86008 | 36208 ft | 453 kts | 318° |
| 2026-04-16 08:16 | 45.53763 | 16.79741 | 36211 ft | 453 kts | 318° |
| 2026-04-16 08:16 | 45.58266 | 16.73468 | 36213 ft | 452 kts | 318° |
| 2026-04-16 08:17 | 45.62764 | 16.67189 | 36203 ft | 452 kts | 318° |
| 2026-04-16 08:17 | 45.67261 | 16.60906 | 36199 ft | 452 kts | 317° |
| 2026-04-16 08:19 | 45.85159 | 16.35737 | 36210 ft | 450 kts | 317° |
| 2026-04-16 08:20 | 45.89578 | 16.29479 | 36206 ft | 450 kts | 317° |
| 2026-04-16 08:20 | 45.94064 | 16.23129 | 36207 ft | 449 kts | 317° |
| 2026-04-16 08:21 | 45.98507 | 16.16814 | 36210 ft | 449 kts | 316° |
| 2026-04-16 08:21 | 46.02944 | 16.10486 | 36210 ft | 449 kts | 317° |
| 2026-04-16 08:22 | 46.07381 | 16.04158 | 36212 ft | 448 kts | 316° |
| 2026-04-16 08:22 | 46.11799 | 15.97826 | 36219 ft | 447 kts | 316° |
| 2026-04-16 08:23 | 46.16205 | 15.91504 | 36223 ft | 447 kts | 316° |
| 2026-04-16 08:23 | 46.20604 | 15.85180 | 36226 ft | 446 kts | 316° |
| 2026-04-16 08:24 | 46.25001 | 15.78852 | 36228 ft | 446 kts | 316° |
| 2026-04-16 08:24 | 46.29361 | 15.72563 | 36227 ft | 446 kts | 316° |
| 2026-04-16 08:25 | 46.33736 | 15.66211 | 36228 ft | 445 kts | 315° |
| 2026-04-16 08:25 | 46.38101 | 15.59853 | 36225 ft | 445 kts | 315° |
| 2026-04-16 08:26 | 46.42467 | 15.53507 | 36233 ft | 445 kts | 315° |
| 2026-04-16 08:26 | 46.46827 | 15.47149 | 36232 ft | 444 kts | 315° |
| 2026-04-16 08:27 | 46.51179 | 15.40778 | 36228 ft | 444 kts | 315° |
| 2026-04-16 08:27 | 46.55530 | 15.34403 | 36228 ft | 444 kts | 315° |
| 2026-04-16 08:28 | 46.59878 | 15.28025 | 36242 ft | 444 kts | 315° |
| 2026-04-16 08:28 | 46.64212 | 15.21636 | 36238 ft | 443 kts | 315° |
| 2026-04-16 08:29 | 46.68652 | 15.15409 | 36230 ft | 443 kts | 317° |
| 2026-04-16 08:29 | 46.73241 | 15.09422 | 36230 ft | 443 kts | 318° |
| 2026-04-16 08:30 | 46.77839 | 15.03435 | 36224 ft | 443 kts | 317° |
| 2026-04-16 08:30 | 46.82394 | 14.97372 | 36242 ft | 443 kts | 317° |
| 2026-04-16 08:31 | 46.86920 | 14.91266 | 36242 ft | 443 kts | 317° |
| 2026-04-16 08:31 | 46.91449 | 14.85164 | 36237 ft | 443 kts | 316° |
| 2026-04-16 08:32 | 46.95969 | 14.79051 | 36234 ft | 442 kts | 316° |
| 2026-04-16 08:32 | 47.00494 | 14.72952 | 36238 ft | 442 kts | 316° |
| 2026-04-16 08:33 | 47.05013 | 14.66853 | 36239 ft | 442 kts | 316° |
| 2026-04-16 08:33 | 47.09520 | 14.60736 | 36247 ft | 441 kts | 316° |
| 2026-04-16 08:34 | 47.14020 | 14.54606 | 36252 ft | 441 kts | 315° |
| 2026-04-16 08:34 | 47.18508 | 14.48462 | 36248 ft | 441 kts | 316° |
| 2026-04-16 08:35 | 47.22972 | 14.42379 | 36253 ft | 440 kts | 315° |
| 2026-04-16 08:35 | 47.27458 | 14.36247 | 36250 ft | 440 kts | 315° |
| 2026-04-16 08:36 | 47.31930 | 14.30096 | 36253 ft | 440 kts | 315° |
| 2026-04-16 08:36 | 47.36397 | 14.23940 | 36269 ft | 439 kts | 315° |
| 2026-04-16 08:37 | 47.40858 | 14.17780 | 36266 ft | 439 kts | 315° |
| 2026-04-16 08:37 | 47.45306 | 14.11630 | 36269 ft | 438 kts | 315° |
| 2026-04-16 08:38 | 47.49746 | 14.05466 | 36267 ft | 438 kts | 315° |
| 2026-04-16 08:38 | 47.54187 | 13.99295 | 36273 ft | 438 kts | 315° |
| 2026-04-16 08:39 | 47.58613 | 13.93132 | 36272 ft | 438 kts | 314° |
| 2026-04-16 08:39 | 47.63044 | 13.86949 | 36276 ft | 437 kts | 314° |
| 2026-04-16 08:40 | 47.67462 | 13.80761 | 36281 ft | 437 kts | 314° |
| 2026-04-16 08:40 | 47.71793 | 13.74664 | 36277 ft | 436 kts | 314° |
| 2026-04-16 08:41 | 47.76261 | 13.68365 | 36274 ft | 436 kts | 314° |
| 2026-04-16 08:41 | 47.80659 | 13.62156 | 36270 ft | 436 kts | 314° |
| 2026-04-16 08:42 | 47.85057 | 13.55941 | 36296 ft | 436 kts | 313° |
| 2026-04-16 08:42 | 47.89448 | 13.49721 | 36289 ft | 435 kts | 313° |
| 2026-04-16 08:43 | 47.93779 | 13.43556 | 36286 ft | 435 kts | 313° |
| 2026-04-16 08:43 | 47.98146 | 13.37318 | 36277 ft | 435 kts | 313° |
| 2026-04-16 08:44 | 48.02514 | 13.31092 | 36279 ft | 434 kts | 313° |
| 2026-04-16 08:44 | 48.06881 | 13.24845 | 36280 ft | 434 kts | 313° |
| 2026-04-16 08:45 | 48.11213 | 13.18620 | 36277 ft | 434 kts | 313° |
| 2026-04-16 08:45 | 48.15572 | 13.12350 | 36275 ft | 434 kts | 313° |
| 2026-04-16 08:46 | 48.19892 | 13.06114 | 36273 ft | 434 kts | 313° |
| 2026-04-16 08:46 | 48.24204 | 12.99780 | 36273 ft | 433 kts | 310° |
| 2026-04-16 08:47 | 48.28244 | 12.93095 | 36281 ft | 432 kts | 307° |
| 2026-04-16 08:47 | 48.32151 | 12.86235 | 36280 ft | 432 kts | 307° |
| 2026-04-16 08:48 | 48.35399 | 12.80585 | 36280 ft | 432 kts | 308° |
| 2026-04-16 08:48 | 48.39373 | 12.73795 | 36286 ft | 433 kts | 308° |
| 2026-04-16 08:49 | 48.43357 | 12.67035 | 36281 ft | 433 kts | 308° |
| 2026-04-16 08:49 | 48.47342 | 12.60239 | 36279 ft | 433 kts | 308° |
| 2026-04-16 08:50 | 48.51284 | 12.53468 | 36281 ft | 432 kts | 308° |
| 2026-04-16 08:50 | 48.55246 | 12.46640 | 36282 ft | 432 kts | 308° |
| 2026-04-16 08:51 | 48.59207 | 12.39800 | 36276 ft | 432 kts | 308° |
| 2026-04-16 08:51 | 48.63164 | 12.32962 | 36279 ft | 432 kts | 308° |
| 2026-04-16 08:52 | 48.67005 | 12.26298 | 36295 ft | 432 kts | 307° |
| 2026-04-16 08:52 | 48.70920 | 12.19488 | 36294 ft | 431 kts | 308° |
| 2026-04-16 08:53 | 48.74292 | 12.12088 | 36288 ft | 424 kts | 292° |
| 2026-04-16 08:53 | 48.75927 | 12.03591 | 36281 ft | 420 kts | 278° |
| 2026-04-16 08:54 | 48.76870 | 11.94860 | 36275 ft | 420 kts | 278° |
| 2026-04-16 08:54 | 48.77815 | 11.86127 | 36274 ft | 420 kts | 278° |
| 2026-04-16 08:55 | 48.78739 | 11.77489 | 36272 ft | 420 kts | 278° |
| 2026-04-16 08:55 | 48.79659 | 11.68751 | 36272 ft | 420 kts | 278° |
| 2026-04-16 08:56 | 48.80574 | 11.60010 | 36270 ft | 420 kts | 278° |
| 2026-04-16 08:56 | 48.81482 | 11.51257 | 36272 ft | 420 kts | 278° |
| 2026-04-16 08:57 | 48.82384 | 11.42500 | 36282 ft | 420 kts | 278° |
| 2026-04-16 08:57 | 48.83278 | 11.33734 | 36281 ft | 420 kts | 277° |
| 2026-04-16 08:58 | 48.84588 | 11.25098 | 36279 ft | 423 kts | 290° |
| 2026-04-16 08:58 | 48.87720 | 11.17529 | 36278 ft | 429 kts | 310° |
| 2026-04-16 08:59 | 48.89889 | 11.14380 | 36154 ft | 432 kts | 314° |
| 2026-04-16 08:59 | 48.92107 | 11.11302 | 35901 ft | 432 kts | 314° |
| 2026-04-16 08:59 | 48.94327 | 11.08217 | 35655 ft | 432 kts | 314° |
| 2026-04-16 08:59 | 48.96522 | 11.05163 | 35413 ft | 432 kts | 314° |
| 2026-04-16 09:00 | 48.98737 | 11.02071 | 35185 ft | 432 kts | 314° |
| 2026-04-16 09:00 | 49.00945 | 10.98976 | 34945 ft | 431 kts | 313° |
| 2026-04-16 09:00 | 49.03152 | 10.95876 | 34716 ft | 431 kts | 313° |
| 2026-04-16 09:00 | 49.05329 | 10.92810 | 34481 ft | 431 kts | 313° |
| 2026-04-16 09:01 | 49.09732 | 10.86599 | 33962 ft | 431 kts | 313° |
| 2026-04-16 09:01 | 49.11933 | 10.83491 | 33683 ft | 432 kts | 313° |
| 2026-04-16 09:01 | 49.14108 | 10.80414 | 33428 ft | 432 kts | 313° |
| 2026-04-16 09:02 | 49.16313 | 10.77288 | 33159 ft | 433 kts | 313° |
| 2026-04-16 09:02 | 49.18520 | 10.74158 | 32892 ft | 433 kts | 313° |
| 2026-04-16 09:02 | 49.20639 | 10.71115 | 32632 ft | 433 kts | 312° |
| 2026-04-16 09:02 | 49.22829 | 10.67804 | 32024 ft | 434 kts | 311° |
| 2026-04-16 09:03 | 49.24950 | 10.64458 | 30864 ft | 441 kts | 310° |
| 2026-04-16 09:03 | 49.27070 | 10.61025 | 29737 ft | 445 kts | 310° |
| 2026-04-16 09:03 | 49.29192 | 10.57576 | 28601 ft | 446 kts | 310° |
| 2026-04-16 09:03 | 49.31324 | 10.54131 | 27329 ft | 451 kts | 311° |
| 2026-04-16 09:04 | 49.33501 | 10.50649 | 26106 ft | 454 kts | 311° |
| 2026-04-16 09:04 | 49.35675 | 10.47129 | 25072 ft | 453 kts | 309° |
| 2026-04-16 09:04 | 49.37564 | 10.43298 | 24610 ft | 449 kts | 303° |
| 2026-04-16 09:04 | 49.39362 | 10.39372 | 24399 ft | 450 kts | 303° |
| 2026-04-16 09:05 | 49.41137 | 10.35505 | 24237 ft | 449 kts | 304° |
| 2026-04-16 09:05 | 49.42938 | 10.31586 | 24249 ft | 450 kts | 304° |
| 2026-04-16 09:05 | 49.44738 | 10.27660 | 24258 ft | 450 kts | 303° |
| 2026-04-16 09:05 | 49.46535 | 10.23728 | 24252 ft | 449 kts | 303° |
| 2026-04-16 09:06 | 49.48328 | 10.19792 | 24251 ft | 449 kts | 303° |
| 2026-04-16 09:06 | 49.50115 | 10.15849 | 24248 ft | 449 kts | 303° |
| 2026-04-16 09:06 | 49.51896 | 10.11900 | 24250 ft | 449 kts | 303° |
| 2026-04-16 09:06 | 49.53677 | 10.07948 | 24261 ft | 449 kts | 303° |
| 2026-04-16 09:07 | 49.55457 | 10.03999 | 24128 ft | 449 kts | 303° |
| 2026-04-16 09:07 | 49.57214 | 10.00099 | 23235 ft | 445 kts | 303° |
| 2026-04-16 09:07 | 49.58974 | 9.96191 | 22221 ft | 442 kts | 303° |
| 2026-04-16 09:07 | 49.60721 | 9.92311 | 21307 ft | 438 kts | 303° |
| 2026-04-16 09:08 | 49.62448 | 9.88465 | 20452 ft | 434 kts | 303° |
| 2026-04-16 09:08 | 49.64158 | 9.84648 | 19620 ft | 431 kts | 303° |
| 2026-04-16 09:08 | 49.65853 | 9.80857 | 18821 ft | 428 kts | 303° |
| 2026-04-16 09:08 | 49.67536 | 9.77089 | 18000 ft | 425 kts | 303° |
| 2026-04-16 09:09 | 49.69202 | 9.73348 | 17173 ft | 421 kts | 303° |
| 2026-04-16 09:09 | 49.70849 | 9.69638 | 16413 ft | 416 kts | 303° |
| 2026-04-16 09:09 | 49.72464 | 9.66001 | 15694 ft | 412 kts | 303° |
| 2026-04-16 09:09 | 49.74093 | 9.62330 | 14952 ft | 409 kts | 303° |
| 2026-04-16 09:10 | 49.75693 | 9.58724 | 14248 ft | 405 kts | 303° |
| 2026-04-16 09:10 | 49.77278 | 9.55150 | 13552 ft | 400 kts | 303° |
| 2026-04-16 09:10 | 49.78831 | 9.51644 | 13174 ft | 389 kts | 303° |
| 2026-04-16 09:10 | 49.80326 | 9.48262 | 13031 ft | 371 kts | 303° |
| 2026-04-16 09:11 | 49.81749 | 9.45033 | 12905 ft | 355 kts | 303° |
| 2026-04-16 09:11 | 49.83110 | 9.41937 | 12776 ft | 340 kts | 303° |
| 2026-04-16 09:11 | 49.84412 | 9.38967 | 12649 ft | 326 kts | 303° |
| 2026-04-16 09:11 | 49.85634 | 9.36092 | 12516 ft | 313 kts | 299° |
| 2026-04-16 09:12 | 49.86541 | 9.33097 | 12387 ft | 302 kts | 290° |
| 2026-04-16 09:12 | 49.87153 | 9.30038 | 12240 ft | 293 kts | 286° |
| 2026-04-16 09:12 | 49.87723 | 9.27038 | 11945 ft | 289 kts | 287° |
| 2026-04-16 09:12 | 49.88289 | 9.24066 | 11596 ft | 287 kts | 287° |
| 2026-04-16 09:13 | 49.88853 | 9.21107 | 11288 ft | 284 kts | 287° |
| 2026-04-16 09:13 | 49.89408 | 9.18188 | 11230 ft | 281 kts | 287° |
| 2026-04-16 09:13 | 49.89962 | 9.15280 | 11237 ft | 281 kts | 287° |
| 2026-04-16 09:13 | 49.90515 | 9.12366 | 11239 ft | 281 kts | 287° |
| 2026-04-16 09:14 | 49.91070 | 9.09455 | 11235 ft | 281 kts | 287° |
| 2026-04-16 09:14 | 49.91594 | 9.06693 | 11240 ft | 280 kts | 287° |
| 2026-04-16 09:14 | 49.92135 | 9.03751 | 11248 ft | 295 kts | 283° |
| 2026-04-16 09:14 | 49.92525 | 9.00422 | 10969 ft | 329 kts | 279° |
| 2026-04-16 09:15 | 49.92871 | 8.96904 | 10378 ft | 330 kts | 279° |
| 2026-04-16 09:15 | 49.93207 | 8.93387 | 9764 ft | 327 kts | 279° |
| 2026-04-16 09:15 | 49.93529 | 8.89976 | 9127 ft | 313 kts | 279° |
| 2026-04-16 09:15 | 49.93845 | 8.86690 | 8504 ft | 302 kts | 279° |
| 2026-04-16 09:16 | 49.94154 | 8.83523 | 7891 ft | 292 kts | 275° |
| 2026-04-16 09:16 | 49.94193 | 8.80421 | 7313 ft | 283 kts | 269° |
| 2026-04-16 09:16 | 49.94154 | 8.77367 | 6823 ft | 284 kts | 269° |
| 2026-04-16 09:16 | 49.94113 | 8.74302 | 6320 ft | 285 kts | 269° |
| 2026-04-16 09:17 | 49.94074 | 8.71223 | 5806 ft | 285 kts | 269° |
| 2026-04-16 09:17 | 49.94040 | 8.68144 | 5344 ft | 284 kts | 269° |
| 2026-04-16 09:17 | 49.94010 | 8.65114 | 4980 ft | 279 kts | 269° |
| 2026-04-16 09:17 | 49.93984 | 8.62107 | 4536 ft | 277 kts | 269° |
| 2026-04-16 09:18 | 49.93958 | 8.59131 | 4122 ft | 274 kts | 270° |
| 2026-04-16 09:18 | 49.94302 | 8.56313 | 4024 ft | 261 kts | 295° |
| 2026-04-16 09:18 | 49.95396 | 8.54157 | 3799 ft | 259 kts | 319° |
| 2026-04-16 09:18 | 49.96834 | 8.52488 | 3551 ft | 258 kts | 323° |
| 2026-04-16 09:19 | 49.98322 | 8.50873 | 3291 ft | 257 kts | 324° |
| 2026-04-16 09:19 | 49.99769 | 8.49315 | 3039 ft | 255 kts | 324° |
| 2026-04-16 09:19 | 50.01227 | 8.47745 | 2789 ft | 254 kts | 324° |
| 2026-04-16 09:19 | 50.02695 | 8.46157 | 2529 ft | 254 kts | 325° |
| 2026-04-16 09:20 | 50.04318 | 8.45134 | 2266 ft | 255 kts | 352° |
| 2026-04-16 09:20 | 50.06064 | 8.45496 | 2069 ft | 254 kts | 22° |
| 2026-04-16 09:20 | 50.07408 | 8.47137 | 2026 ft | 243 kts | 52° |
| 2026-04-16 09:20 | 50.08418 | 8.49253 | 2034 ft | 244 kts | 50° |
| 2026-04-16 09:21 | 50.09524 | 8.51256 | 2034 ft | 244 kts | 48° |
| 2026-04-16 09:21 | 50.10530 | 8.53320 | 2032 ft | 237 kts | 60° |
| 2026-04-16 09:21 | 50.11290 | 8.55576 | 2040 ft | 234 kts | 63° |
| 2026-04-16 09:21 | 50.12000 | 8.57842 | 2033 ft | 233 kts | 64° |
| 2026-04-16 09:22 | 50.12706 | 8.60111 | 2035 ft | 233 kts | 64° |
| 2026-04-16 09:22 | 50.13404 | 8.62350 | 2036 ft | 233 kts | 64° |
| 2026-04-16 09:22 | 50.14110 | 8.64621 | 2028 ft | 233 kts | 64° |
| 2026-04-16 09:22 | 50.14814 | 8.66894 | 2023 ft | 233 kts | 64° |
| 2026-04-16 09:23 | 50.15519 | 8.69164 | 2023 ft | 230 kts | 64° |
| 2026-04-16 09:23 | 50.16206 | 8.71379 | 2028 ft | 225 kts | 64° |
| 2026-04-16 09:23 | 50.16884 | 8.73560 | 2025 ft | 223 kts | 64° |
| 2026-04-16 09:23 | 50.17558 | 8.75743 | 2027 ft | 224 kts | 64° |
| 2026-04-16 09:24 | 50.18230 | 8.77925 | 2027 ft | 223 kts | 64° |
| 2026-04-16 09:24 | 50.18903 | 8.80102 | 2029 ft | 223 kts | 64° |
| 2026-04-16 09:24 | 50.19580 | 8.82274 | 2025 ft | 222 kts | 64° |
| 2026-04-16 09:24 | 50.20164 | 8.84419 | 2022 ft | 208 kts | 78° |
| 2026-04-16 09:25 | 50.20182 | 8.86577 | 2028 ft | 192 kts | 104° |
| 2026-04-16 09:25 | 50.19660 | 8.88330 | 2022 ft | 169 kts | 130° |
| 2026-04-16 09:25 | 50.18826 | 8.89489 | 2025 ft | 156 kts | 152° |
| 2026-04-16 09:25 | 50.17833 | 8.90075 | 2025 ft | 150 kts | 172° |
| 2026-04-16 09:26 | 50.16827 | 8.90088 | 2023 ft | 142 kts | 192° |
| 2026-04-16 09:26 | 50.15902 | 8.89612 | 2030 ft | 139 kts | 205° |
| 2026-04-16 09:26 | 50.15018 | 8.89021 | 2033 ft | 138 kts | 205° |
| 2026-04-16 09:26 | 50.14137 | 8.88435 | 2040 ft | 137 kts | 205° |
| 2026-04-16 09:27 | 50.13261 | 8.87855 | 2032 ft | 137 kts | 205° |
| 2026-04-16 09:27 | 50.12386 | 8.87273 | 2033 ft | 136 kts | 205° |
| 2026-04-16 09:27 | 50.11519 | 8.86666 | 2018 ft | 137 kts | 211° |
| 2026-04-16 09:27 | 50.10760 | 8.85776 | 2025 ft | 137 kts | 226° |
| 2026-04-16 09:28 | 50.10269 | 8.84541 | 2033 ft | 136 kts | 246° |
| 2026-04-16 09:28 | 50.09881 | 8.83180 | 2032 ft | 136 kts | 248° |
| 2026-04-16 09:28 | 50.09523 | 8.81815 | 2032 ft | 136 kts | 249° |
| 2026-04-16 09:28 | 50.09181 | 8.80440 | 2036 ft | 136 kts | 249° |
| 2026-04-16 09:29 | 50.08849 | 8.79070 | 2033 ft | 136 kts | 250° |
| 2026-04-16 09:29 | 50.08520 | 8.77690 | 2041 ft | 135 kts | 249° |
| 2026-04-16 09:29 | 50.08196 | 8.76328 | 2036 ft | 133 kts | 249° |
| 2026-04-16 09:29 | 50.07877 | 8.74983 | 2031 ft | 133 kts | 249° |
| 2026-04-16 09:30 | 50.07639 | 8.73592 | 1970 ft | 133 kts | 262° |
| 2026-04-16 09:30 | 50.07525 | 8.72160 | 1938 ft | 134 kts | 261° |
| 2026-04-16 09:30 | 50.07340 | 8.70732 | 1927 ft | 136 kts | 256° |
| 2026-04-16 09:30 | 50.07036 | 8.69349 | 1855 ft | 135 kts | 248° |
| 2026-04-16 09:31 | 50.06714 | 8.67981 | 1738 ft | 134 kts | 250° |
| 2026-04-16 09:31 | 50.06401 | 8.66619 | 1506 ft | 132 kts | 251° |
| 2026-04-16 09:31 | 50.06215 | 8.65725 | 1392 ft | 132 kts | 248° |
| 2026-04-16 09:31 | 50.05751 | 8.63956 | 1164 ft | 132 kts | 249° |
| 2026-04-16 09:32 | 50.05554 | 8.63060 | 1051 ft | 132 kts | 249° |
| 2026-04-16 09:32 | 50.05228 | 8.61734 | 853 ft | 131 kts | 248° |
| 2026-04-16 09:32 | 50.04917 | 8.60407 | 654 ft | 130 kts | 249° |
| 2026-04-16 09:32 | 50.04607 | 8.59085 | 464 ft | 129 kts | 248° |
| 2026-04-16 09:33 | 50.04293 | 8.57783 | 371 ft | 124 kts | 247° |
| 2026-04-16 09:33 | 50.04033 | 8.56713 | 362 ft | 82 kts | 250° |
| 2026-04-16 09:33 | 50.03900 | 8.56145 | 356 ft | 28 kts | 251° |
| 2026-04-16 09:33 | 50.03884 | 8.55874 | 354 ft | 20 kts | 276° |
| 2026-04-16 09:34 | 50.03908 | 8.55676 | 351 ft | 18 kts | 293° |
| 2026-04-16 09:34 | 50.03997 | 8.55699 | 352 ft | 14 kts | 62° |
| 2026-04-16 09:34 | 50.04025 | 8.55831 | 359 ft | 12 kts | 73° |
| 2026-04-16 09:34 | 50.04048 | 8.55942 | 353 ft | 3 kts | 70° |
| 2026-04-16 09:35 | 50.04057 | 8.55979 | 358 ft | 6 kts | 70° |
| 2026-04-16 09:35 | 50.04078 | 8.56071 | 357 ft | 9 kts | 70° |
| 2026-04-16 09:35 | 50.04107 | 8.56200 | 357 ft | 17 kts | 70° |
| 2026-04-16 09:35 | 50.04144 | 8.56359 | 358 ft | 14 kts | 70° |
| 2026-04-16 09:36 | 50.04176 | 8.56493 | 358 ft | 12 kts | 70° |
| 2026-04-16 09:36 | 50.04204 | 8.56605 | 359 ft | 12 kts | 69° |
| 2026-04-16 09:36 | 50.04233 | 8.56726 | 361 ft | 10 kts | 69° |
| 2026-04-16 09:36 | 50.04286 | 8.56806 | 363 ft | 12 kts | 17° |
| 2026-04-16 09:37 | 50.04363 | 8.56832 | 361 ft | 12 kts | 11° |
| 2026-04-16 09:37 | 50.04463 | 8.56858 | 362 ft | 17 kts | 10° |
| 2026-04-16 09:37 | 50.04579 | 8.56899 | 361 ft | 17 kts | 13° |
| 2026-04-16 09:37 | 50.04690 | 8.56958 | 356 ft | 16 kts | 25° |
| 2026-04-16 09:38 | 50.04784 | 8.57027 | 362 ft | 13 kts | 25° |
| 2026-04-16 09:38 | 50.04857 | 8.57077 | 357 ft | 7 kts | 23° |
| 2026-04-16 09:38 | 50.04875 | 8.57090 | 363 ft | 3 kts | 29° |
| 2026-04-16 09:38 | 50.04891 | 8.57118 | 365 ft | 4 kts | 60° |
| 2026-04-16 09:39 | 50.04889 | 8.57142 | 358 ft | 1 kts | 135° |
| 2026-04-16 09:39 | 50.04884 | 8.57146 | 362 ft | 0 kts | 144° |